sensor_id;sensor_type;location;lat;lon;timestamp;temperature;humidity
53152;DHT22;39234;53.158;6.322;2022-07-05T00:01:07;11.50;99.90
53152;DHT22;39234;53.158;6.322;2022-07-05T00:03:33;11.70;99.90
53152;DHT22;39234;53.158;6.322;2022-07-05T00:05:59;11.60;99.90
53152;DHT22;39234;53.158;6.322;2022-07-05T00:08:26;11.30;99.90
53152;DHT22;39234;53.158;6.322;2022-07-05T00:10:51;12.30;99.90
53152;DHT22;39234;53.158;6.322;2022-07-05T00:13:19;11.80;99.90
53152;DHT22;39234;53.158;6.322;2022-07-05T00:15:46;11.90;99.90
53152;DHT22;39234;53.158;6.322;2022-07-05T00:18:12;11.30;99.90
53152;DHT22;39234;53.158;6.322;2022-07-05T00:20:38;11.30;99.90
53152;DHT22;39234;53.158;6.322;2022-07-05T00:23:03;11.80;99.90
53152;DHT22;39234;53.158;6.322;2022-07-05T00:25:29;12.00;99.90
53152;DHT22;39234;53.158;6.322;2022-07-05T00:27:57;11.40;99.90
53152;DHT22;39234;53.158;6.322;2022-07-05T00:30:22;11.30;99.90
53152;DHT22;39234;53.158;6.322;2022-07-05T00:32:48;11.20;99.90
53152;DHT22;39234;53.158;6.322;2022-07-05T00:35:14;13.20;99.90
53152;DHT22;39234;53.158;6.322;2022-07-05T00:37:41;11.20;99.90
53152;DHT22;39234;53.158;6.322;2022-07-05T00:40:07;10.50;99.90
53152;DHT22;39234;53.158;6.322;2022-07-05T00:42:34;11.20;99.90
53152;DHT22;39234;53.158;6.322;2022-07-05T00:45:03;11.40;99.90
53152;DHT22;39234;53.158;6.322;2022-07-05T00:47:29;11.10;99.90
53152;DHT22;39234;53.158;6.322;2022-07-05T00:49:54;12.30;99.90
53152;DHT22;39234;53.158;6.322;2022-07-05T00:52:20;12.00;99.90
53152;DHT22;39234;53.158;6.322;2022-07-05T00:54:46;12.50;99.90
53152;DHT22;39234;53.158;6.322;2022-07-05T00:57:12;11.00;99.90
53152;DHT22;39234;53.158;6.322;2022-07-05T00:59:37;10.90;99.90
53152;DHT22;39234;53.158;6.322;2022-07-05T01:02:03;11.90;99.90
53152;DHT22;39234;53.158;6.322;2022-07-05T01:04:29;11.10;99.90
53152;DHT22;39234;53.158;6.322;2022-07-05T01:06:55;12.10;99.90
53152;DHT22;39234;53.158;6.322;2022-07-05T01:09:23;11.20;99.90
53152;DHT22;39234;53.158;6.322;2022-07-05T01:11:50;10.90;99.90
53152;DHT22;39234;53.158;6.322;2022-07-05T01:14:18;11.10;99.90
53152;DHT22;39234;53.158;6.322;2022-07-05T01:16:45;9.70;99.90
53152;DHT22;39234;53.158;6.322;2022-07-05T01:19:12;10.80;99.90
53152;DHT22;39234;53.158;6.322;2022-07-05T01:21:41;10.90;99.90
53152;DHT22;39234;53.158;6.322;2022-07-05T01:24:09;10.90;99.90
53152;DHT22;39234;53.158;6.322;2022-07-05T01:26:36;10.20;99.90
53152;DHT22;39234;53.158;6.322;2022-07-05T01:29:02;11.00;99.90
53152;DHT22;39234;53.158;6.322;2022-07-05T01:31:28;11.10;99.90
53152;DHT22;39234;53.158;6.322;2022-07-05T01:33:53;11.60;99.90
53152;DHT22;39234;53.158;6.322;2022-07-05T01:36:19;10.70;99.90
53152;DHT22;39234;53.158;6.322;2022-07-05T01:38:46;10.70;99.90
53152;DHT22;39234;53.158;6.322;2022-07-05T01:41:11;11.90;99.90
53152;DHT22;39234;53.158;6.322;2022-07-05T01:43:37;12.90;99.90
53152;DHT22;39234;53.158;6.322;2022-07-05T01:46:05;10.70;99.90
53152;DHT22;39234;53.158;6.322;2022-07-05T01:48:32;10.60;99.90
53152;DHT22;39234;53.158;6.322;2022-07-05T01:51:06;10.60;99.90
53152;DHT22;39234;53.158;6.322;2022-07-05T01:53:33;10.60;99.90
53152;DHT22;39234;53.158;6.322;2022-07-05T01:56:00;10.50;99.90
53152;DHT22;39234;53.158;6.322;2022-07-05T01:58:26;11.70;99.90
53152;DHT22;39234;53.158;6.322;2022-07-05T02:00:53;10.70;99.90
53152;DHT22;39234;53.158;6.322;2022-07-05T02:03:19;10.60;99.90
53152;DHT22;39234;53.158;6.322;2022-07-05T02:05:47;10.60;99.90
53152;DHT22;39234;53.158;6.322;2022-07-05T02:08:14;10.60;99.90
53152;DHT22;39234;53.158;6.322;2022-07-05T02:10:40;10.40;99.90
53152;DHT22;39234;53.158;6.322;2022-07-05T02:13:06;10.60;99.90
53152;DHT22;39234;53.158;6.322;2022-07-05T02:15:37;10.40;99.90
53152;DHT22;39234;53.158;6.322;2022-07-05T02:18:04;8.20;99.90
53152;DHT22;39234;53.158;6.322;2022-07-05T02:20:31;10.20;99.90
53152;DHT22;39234;53.158;6.322;2022-07-05T02:22:57;10.40;99.90
53152;DHT22;39234;53.158;6.322;2022-07-05T02:25:25;10.60;99.90
53152;DHT22;39234;53.158;6.322;2022-07-05T02:27:52;10.40;99.90
53152;DHT22;39234;53.158;6.322;2022-07-05T02:30:18;10.10;99.90
53152;DHT22;39234;53.158;6.322;2022-07-05T02:32:45;10.30;99.90
53152;DHT22;39234;53.158;6.322;2022-07-05T02:35:11;10.20;99.90
53152;DHT22;39234;53.158;6.322;2022-07-05T02:37:37;10.20;99.90
53152;DHT22;39234;53.158;6.322;2022-07-05T02:40:09;10.90;99.90
53152;DHT22;39234;53.158;6.322;2022-07-05T02:42:37;10.20;99.90
53152;DHT22;39234;53.158;6.322;2022-07-05T02:45:04;10.70;99.90
53152;DHT22;39234;53.158;6.322;2022-07-05T02:47:31;10.30;99.90
53152;DHT22;39234;53.158;6.322;2022-07-05T02:50:06;10.30;99.90
53152;DHT22;39234;53.158;6.322;2022-07-05T02:52:32;10.20;99.90
53152;DHT22;39234;53.158;6.322;2022-07-05T02:54:58;10.20;99.90
53152;DHT22;39234;53.158;6.322;2022-07-05T02:57:24;10.30;99.90
53152;DHT22;39234;53.158;6.322;2022-07-05T02:59:51;10.20;99.90
53152;DHT22;39234;53.158;6.322;2022-07-05T03:02:17;12.30;99.90
53152;DHT22;39234;53.158;6.322;2022-07-05T03:04:45;11.20;99.90
53152;DHT22;39234;53.158;6.322;2022-07-05T03:07:10;10.80;99.90
53152;DHT22;39234;53.158;6.322;2022-07-05T03:09:36;10.20;99.90
53152;DHT22;39234;53.158;6.322;2022-07-05T03:12:02;10.10;99.90
53152;DHT22;39234;53.158;6.322;2022-07-05T03:14:28;10.10;99.90
53152;DHT22;39234;53.158;6.322;2022-07-05T03:16:53;10.40;99.90
53152;DHT22;39234;53.158;6.322;2022-07-05T03:19:21;10.20;99.90
53152;DHT22;39234;53.158;6.322;2022-07-05T03:21:47;10.10;99.90
53152;DHT22;39234;53.158;6.322;2022-07-05T03:24:14;11.00;99.90
53152;DHT22;39234;53.158;6.322;2022-07-05T03:26:40;11.70;99.90
53152;DHT22;39234;53.158;6.322;2022-07-05T03:29:06;11.20;99.90
53152;DHT22;39234;53.158;6.322;2022-07-05T03:31:31;10.20;99.90
53152;DHT22;39234;53.158;6.322;2022-07-05T03:33:57;10.20;99.90
53152;DHT22;39234;53.158;6.322;2022-07-05T03:36:23;12.20;99.90
53152;DHT22;39234;53.158;6.322;2022-07-05T03:38:50;10.30;99.90
53152;DHT22;39234;53.158;6.322;2022-07-05T03:41:18;10.20;99.90
53152;DHT22;39234;53.158;6.322;2022-07-05T03:43:44;10.40;99.90
53152;DHT22;39234;53.158;6.322;2022-07-05T03:46:09;10.60;99.90
53152;DHT22;39234;53.158;6.322;2022-07-05T03:48:37;10.40;99.90
53152;DHT22;39234;53.158;6.322;2022-07-05T03:51:03;10.50;99.90
53152;DHT22;39234;53.158;6.322;2022-07-05T03:53:28;10.50;99.90
53152;DHT22;39234;53.158;6.322;2022-07-05T03:55:54;10.60;99.90
53152;DHT22;39234;53.158;6.322;2022-07-05T03:58:20;12.10;99.90
53152;DHT22;39234;53.158;6.322;2022-07-05T04:00:45;12.00;99.90
53152;DHT22;39234;53.158;6.322;2022-07-05T04:03:11;11.00;99.90
53152;DHT22;39234;53.158;6.322;2022-07-05T04:05:37;10.90;99.90
53152;DHT22;39234;53.158;6.322;2022-07-05T04:08:03;11.10;99.90
53152;DHT22;39234;53.158;6.322;2022-07-05T04:10:30;11.20;99.90
53152;DHT22;39234;53.158;6.322;2022-07-05T04:12:56;11.30;99.90
53152;DHT22;39234;53.158;6.322;2022-07-05T04:15:22;11.40;99.90
53152;DHT22;39234;53.158;6.322;2022-07-05T04:17:53;11.60;99.90
53152;DHT22;39234;53.158;6.322;2022-07-05T04:20:20;11.80;99.90
53152;DHT22;39234;53.158;6.322;2022-07-05T04:22:48;11.80;99.90
53152;DHT22;39234;53.158;6.322;2022-07-05T04:25:14;12.90;99.90
53152;DHT22;39234;53.158;6.322;2022-07-05T04:27:54;13.50;99.90
53152;DHT22;39234;53.158;6.322;2022-07-05T04:30:22;12.10;99.90
53152;DHT22;39234;53.158;6.322;2022-07-05T04:32:48;13.60;99.90
53152;DHT22;39234;53.158;6.322;2022-07-05T04:35:14;12.20;99.90
53152;DHT22;39234;53.158;6.322;2022-07-05T04:37:42;12.40;99.90
53152;DHT22;39234;53.158;6.322;2022-07-05T04:40:10;12.40;99.90
53152;DHT22;39234;53.158;6.322;2022-07-05T04:42:36;12.40;99.90
53152;DHT22;39234;53.158;6.322;2022-07-05T04:45:03;14.70;99.90
53152;DHT22;39234;53.158;6.322;2022-07-05T04:47:29;12.60;99.90
53152;DHT22;39234;53.158;6.322;2022-07-05T04:49:55;12.70;99.90
53152;DHT22;39234;53.158;6.322;2022-07-05T04:52:23;12.70;99.90
53152;DHT22;39234;53.158;6.322;2022-07-05T04:54:49;13.50;99.90
53152;DHT22;39234;53.158;6.322;2022-07-05T04:57:14;14.90;99.90
53152;DHT22;39234;53.158;6.322;2022-07-05T04:59:42;12.80;99.90
53152;DHT22;39234;53.158;6.322;2022-07-05T05:02:08;14.40;99.90
53152;DHT22;39234;53.158;6.322;2022-07-05T05:04:33;13.20;99.90
53152;DHT22;39234;53.158;6.322;2022-07-05T05:06:59;13.60;99.90
53152;DHT22;39234;53.158;6.322;2022-07-05T05:09:25;13.40;99.90
53152;DHT22;39234;53.158;6.322;2022-07-05T05:11:51;13.50;99.90
53152;DHT22;39234;53.158;6.322;2022-07-05T05:14:16;14.00;99.90
53152;DHT22;39234;53.158;6.322;2022-07-05T05:16:42;13.90;99.90
53152;DHT22;39234;53.158;6.322;2022-07-05T05:19:10;14.80;99.90
53152;DHT22;39234;53.158;6.322;2022-07-05T05:21:35;13.60;99.90
53152;DHT22;39234;53.158;6.322;2022-07-05T05:24:01;13.90;99.90
53152;DHT22;39234;53.158;6.322;2022-07-05T05:26:29;14.00;99.90
53152;DHT22;39234;53.158;6.322;2022-07-05T05:28:54;14.80;99.90
53152;DHT22;39234;53.158;6.322;2022-07-05T05:31:20;14.20;99.90
53152;DHT22;39234;53.158;6.322;2022-07-05T05:33:46;14.30;99.90
53152;DHT22;39234;53.158;6.322;2022-07-05T05:36:12;15.00;99.90
53152;DHT22;39234;53.158;6.322;2022-07-05T05:38:38;14.60;99.90
53152;DHT22;39234;53.158;6.322;2022-07-05T05:41:03;14.70;99.90
53152;DHT22;39234;53.158;6.322;2022-07-05T05:43:29;14.80;99.90
53152;DHT22;39234;53.158;6.322;2022-07-05T05:45:55;15.70;99.90
53152;DHT22;39234;53.158;6.322;2022-07-05T05:48:21;17.80;99.90
53152;DHT22;39234;53.158;6.322;2022-07-05T05:50:47;15.40;99.90
53152;DHT22;39234;53.158;6.322;2022-07-05T05:53:13;15.40;99.90
53152;DHT22;39234;53.158;6.322;2022-07-05T05:55:39;17.40;99.90
53152;DHT22;39234;53.158;6.322;2022-07-05T05:58:19;15.70;99.90
53152;DHT22;39234;53.158;6.322;2022-07-05T06:00:49;15.70;99.90
53152;DHT22;39234;53.158;6.322;2022-07-05T06:03:22;15.80;99.90
53152;DHT22;39234;53.158;6.322;2022-07-05T06:05:48;15.90;99.90
53152;DHT22;39234;53.158;6.322;2022-07-05T06:08:14;16.10;99.90
53152;DHT22;39234;53.158;6.322;2022-07-05T06:10:42;16.80;99.90
53152;DHT22;39234;53.158;6.322;2022-07-05T06:13:09;17.40;99.90
53152;DHT22;39234;53.158;6.322;2022-07-05T06:15:35;17.00;99.90
53152;DHT22;39234;53.158;6.322;2022-07-05T06:18:02;16.30;99.90
53152;DHT22;39234;53.158;6.322;2022-07-05T06:20:32;16.60;99.90
53152;DHT22;39234;53.158;6.322;2022-07-05T06:22:59;17.80;99.90
53152;DHT22;39234;53.158;6.322;2022-07-05T06:25:27;18.70;94.50
53152;DHT22;39234;53.158;6.322;2022-07-05T06:27:58;20.60;90.50
53152;DHT22;39234;53.158;6.322;2022-07-05T06:30:27;19.10;74.60
53152;DHT22;39234;53.158;6.322;2022-07-05T06:32:55;20.40;74.20
53152;DHT22;39234;53.158;6.322;2022-07-05T06:35:21;18.30;76.00
53152;DHT22;39234;53.158;6.322;2022-07-05T06:37:48;19.40;72.40
53152;DHT22;39234;53.158;6.322;2022-07-05T06:40:19;18.50;61.70
53152;DHT22;39234;53.158;6.322;2022-07-05T06:42:45;18.60;57.50
53152;DHT22;39234;53.158;6.322;2022-07-05T06:45:11;18.40;69.10
53152;DHT22;39234;53.158;6.322;2022-07-05T06:47:37;18.50;56.70
53152;DHT22;39234;53.158;6.322;2022-07-05T06:50:04;16.70;60.10
53152;DHT22;39234;53.158;6.322;2022-07-05T06:52:31;18.60;58.10
53152;DHT22;39234;53.158;6.322;2022-07-05T06:54:57;19.40;57.10
53152;DHT22;39234;53.158;6.322;2022-07-05T06:57:23;19.00;45.20
53152;DHT22;39234;53.158;6.322;2022-07-05T06:59:50;21.00;33.40
53152;DHT22;39234;53.158;6.322;2022-07-05T07:02:16;20.00;8.80
53152;DHT22;39234;53.158;6.322;2022-07-05T07:04:41;19.90;1.00
53152;DHT22;39234;53.158;6.322;2022-07-05T07:07:08;19.80;1.00
53152;DHT22;39234;53.158;6.322;2022-07-05T07:10:00;19.90;1.00
53152;DHT22;39234;53.158;6.322;2022-07-05T07:12:26;20.40;1.00
53152;DHT22;39234;53.158;6.322;2022-07-05T07:14:52;20.50;99.90
53152;DHT22;39234;53.158;6.322;2022-07-05T07:17:18;20.40;74.10
53152;DHT22;39234;53.158;6.322;2022-07-05T07:19:43;20.50;7.00
53152;DHT22;39234;53.158;6.322;2022-07-05T07:22:09;21.10;99.90
53152;DHT22;39234;53.158;6.322;2022-07-05T07:24:35;21.50;1.00
53152;DHT22;39234;53.158;6.322;2022-07-05T07:27:00;24.10;99.90
53152;DHT22;39234;53.158;6.322;2022-07-05T07:29:35;23.10;99.90
53152;DHT22;39234;53.158;6.322;2022-07-05T07:32:01;23.30;99.90
53152;DHT22;39234;53.158;6.322;2022-07-05T07:34:28;23.30;99.90
53152;DHT22;39234;53.158;6.322;2022-07-05T07:36:54;23.40;1.00
53152;DHT22;39234;53.158;6.322;2022-07-05T07:39:20;22.80;99.90
53152;DHT22;39234;53.158;6.322;2022-07-05T07:41:46;22.50;99.90
53152;DHT22;39234;53.158;6.322;2022-07-05T07:44:12;24.20;99.90
53152;DHT22;39234;53.158;6.322;2022-07-05T07:46:40;23.50;99.90
53152;DHT22;39234;53.158;6.322;2022-07-05T07:49:06;24.90;99.90
53152;DHT22;39234;53.158;6.322;2022-07-05T07:51:33;25.60;99.90
53152;DHT22;39234;53.158;6.322;2022-07-05T07:54:00;26.50;1.00
53152;DHT22;39234;53.158;6.322;2022-07-05T07:56:27;27.20;99.90
53152;DHT22;39234;53.158;6.322;2022-07-05T07:58:53;27.30;99.90
53152;DHT22;39234;53.158;6.322;2022-07-05T08:01:19;26.80;69.20
53152;DHT22;39234;53.158;6.322;2022-07-05T08:03:46;27.10;18.60
53152;DHT22;39234;53.158;6.322;2022-07-05T08:06:13;27.00;1.00
53152;DHT22;39234;53.158;6.322;2022-07-05T08:08:40;26.70;1.00
53152;DHT22;39234;53.158;6.322;2022-07-05T08:11:09;27.00;1.00
53152;DHT22;39234;53.158;6.322;2022-07-05T08:13:35;27.00;1.00
53152;DHT22;39234;53.158;6.322;2022-07-05T08:16:01;27.10;1.00
53152;DHT22;39234;53.158;6.322;2022-07-05T08:18:29;27.00;99.90
53152;DHT22;39234;53.158;6.322;2022-07-05T08:21:13;27.70;99.90
53152;DHT22;39234;53.158;6.322;2022-07-05T08:24:08;27.00;99.90
53152;DHT22;39234;53.158;6.322;2022-07-05T08:26:34;26.50;99.90
53152;DHT22;39234;53.158;6.322;2022-07-05T08:29:03;25.70;99.90
53152;DHT22;39234;53.158;6.322;2022-07-05T08:31:32;24.70;99.90
53152;DHT22;39234;53.158;6.322;2022-07-05T08:33:58;24.30;99.90
53152;DHT22;39234;53.158;6.322;2022-07-05T08:36:26;24.10;99.90
53152;DHT22;39234;53.158;6.322;2022-07-05T08:38:52;23.90;99.90
53152;DHT22;39234;53.158;6.322;2022-07-05T08:41:21;24.60;99.90
53152;DHT22;39234;53.158;6.322;2022-07-05T08:43:48;23.50;99.90
53152;DHT22;39234;53.158;6.322;2022-07-05T08:46:15;24.10;99.90
53152;DHT22;39234;53.158;6.322;2022-07-05T08:48:42;24.90;99.90
53152;DHT22;39234;53.158;6.322;2022-07-05T08:51:15;24.30;99.90
53152;DHT22;39234;53.158;6.322;2022-07-05T08:53:43;23.20;99.90
53152;DHT22;39234;53.158;6.322;2022-07-05T08:56:11;22.20;99.90
53152;DHT22;39234;53.158;6.322;2022-07-05T08:58:37;21.70;99.90
53152;DHT22;39234;53.158;6.322;2022-07-05T09:01:05;21.10;99.90
53152;DHT22;39234;53.158;6.322;2022-07-05T09:03:33;20.40;1.00
53152;DHT22;39234;53.158;6.322;2022-07-05T09:06:03;22.60;1.00
53152;DHT22;39234;53.158;6.322;2022-07-05T09:08:35;21.90;1.00
53152;DHT22;39234;53.158;6.322;2022-07-05T09:11:12;22.80;1.00
53152;DHT22;39234;53.158;6.322;2022-07-05T09:13:41;25.70;99.90
53152;DHT22;39234;53.158;6.322;2022-07-05T09:16:07;23.20;1.00
53152;DHT22;39234;53.158;6.322;2022-07-05T09:21:18;22.00;1.00
53152;DHT22;39234;53.158;6.322;2022-07-05T09:23:57;21.90;1.00
53152;DHT22;39234;53.158;6.322;2022-07-05T09:29:06;20.70;1.00
53152;DHT22;39234;53.158;6.322;2022-07-05T09:31:35;21.00;1.00
53152;DHT22;39234;53.158;6.322;2022-07-05T09:34:09;20.20;1.00
53152;DHT22;39234;53.158;6.322;2022-07-05T09:36:59;20.70;92.00
53152;DHT22;39234;53.158;6.322;2022-07-05T09:44:45;22.60;99.90
53152;DHT22;39234;53.158;6.322;2022-07-05T09:47:13;21.10;99.90
53152;DHT22;39234;53.158;6.322;2022-07-05T09:49:42;21.20;99.90
53152;DHT22;39234;53.158;6.322;2022-07-05T09:52:09;21.50;99.90
53152;DHT22;39234;53.158;6.322;2022-07-05T09:54:35;23.20;99.90
53152;DHT22;39234;53.158;6.322;2022-07-05T09:57:00;21.20;99.90
53152;DHT22;39234;53.158;6.322;2022-07-05T09:59:26;23.10;99.90
53152;DHT22;39234;53.158;6.322;2022-07-05T10:01:52;21.20;99.90
53152;DHT22;39234;53.158;6.322;2022-07-05T10:04:18;21.10;99.90
53152;DHT22;39234;53.158;6.322;2022-07-05T10:06:44;21.80;99.90
53152;DHT22;39234;53.158;6.322;2022-07-05T10:09:11;20.40;99.90
53152;DHT22;39234;53.158;6.322;2022-07-05T10:11:41;20.10;99.90
53152;DHT22;39234;53.158;6.322;2022-07-05T10:14:17;20.10;99.90
53152;DHT22;39234;53.158;6.322;2022-07-05T10:16:52;20.10;99.90
53152;DHT22;39234;53.158;6.322;2022-07-05T10:19:20;20.50;99.90
53152;DHT22;39234;53.158;6.322;2022-07-05T10:21:47;20.80;99.90
53152;DHT22;39234;53.158;6.322;2022-07-05T10:24:13;21.50;99.90
53152;DHT22;39234;53.158;6.322;2022-07-05T10:26:43;22.00;99.90
53152;DHT22;39234;53.158;6.322;2022-07-05T10:29:10;21.80;99.90
53152;DHT22;39234;53.158;6.322;2022-07-05T10:31:36;21.60;99.90
53152;DHT22;39234;53.158;6.322;2022-07-05T10:34:03;21.00;95.50
53152;DHT22;39234;53.158;6.322;2022-07-05T10:36:33;20.80;99.90
53152;DHT22;39234;53.158;6.322;2022-07-05T10:39:00;20.40;99.90
53152;DHT22;39234;53.158;6.322;2022-07-05T10:41:27;20.10;99.90
53152;DHT22;39234;53.158;6.322;2022-07-05T10:43:57;20.10;99.90
53152;DHT22;39234;53.158;6.322;2022-07-05T10:46:35;20.20;99.90
53152;DHT22;39234;53.158;6.322;2022-07-05T10:49:15;20.00;99.90
53152;DHT22;39234;53.158;6.322;2022-07-05T10:51:42;20.10;99.90
53152;DHT22;39234;53.158;6.322;2022-07-05T10:54:08;20.60;99.90
53152;DHT22;39234;53.158;6.322;2022-07-05T10:56:34;20.50;99.90
53152;DHT22;39234;53.158;6.322;2022-07-05T10:59:09;20.30;99.90
53152;DHT22;39234;53.158;6.322;2022-07-05T11:01:38;20.30;99.90
53152;DHT22;39234;53.158;6.322;2022-07-05T11:06:44;20.60;99.90
53152;DHT22;39234;53.158;6.322;2022-07-05T11:11:38;21.20;99.90
53152;DHT22;39234;53.158;6.322;2022-07-05T11:23:01;23.70;99.90
53152;DHT22;39234;53.158;6.322;2022-07-05T11:25:32;23.20;99.90
53152;DHT22;39234;53.158;6.322;2022-07-05T11:28:19;23.20;99.90
53152;DHT22;39234;53.158;6.322;2022-07-05T11:30:51;23.00;99.90
53152;DHT22;39234;53.158;6.322;2022-07-05T11:35:59;23.00;99.90
53152;DHT22;39234;53.158;6.322;2022-07-05T11:38:26;22.90;99.90
53152;DHT22;39234;53.158;6.322;2022-07-05T11:40:51;22.30;98.80
53152;DHT22;39234;53.158;6.322;2022-07-05T11:43:27;21.90;96.70
53152;DHT22;39234;53.158;6.322;2022-07-05T11:46:00;21.10;99.90
53152;DHT22;39234;53.158;6.322;2022-07-05T11:48:27;20.70;99.90
53152;DHT22;39234;53.158;6.322;2022-07-05T11:50:55;20.30;99.90
53152;DHT22;39234;53.158;6.322;2022-07-05T11:53:31;20.40;99.90
53152;DHT22;39234;53.158;6.322;2022-07-05T11:55:59;20.40;99.90
53152;DHT22;39234;53.158;6.322;2022-07-05T11:58:33;21.00;99.90
53152;DHT22;39234;53.158;6.322;2022-07-05T12:00:59;21.10;99.90
53152;DHT22;39234;53.158;6.322;2022-07-05T12:03:29;19.90;99.90
53152;DHT22;39234;53.158;6.322;2022-07-05T12:05:55;19.60;99.90
53152;DHT22;39234;53.158;6.322;2022-07-05T12:08:22;19.50;1.00
53152;DHT22;39234;53.158;6.322;2022-07-05T12:10:48;19.80;51.80
53152;DHT22;39234;53.158;6.322;2022-07-05T12:13:45;19.30;99.90
53152;DHT22;39234;53.158;6.322;2022-07-05T12:16:12;19.10;99.90
53152;DHT22;39234;53.158;6.322;2022-07-05T12:21:18;19.00;1.00
53152;DHT22;39234;53.158;6.322;2022-07-05T12:23:46;20.10;99.90
53152;DHT22;39234;53.158;6.322;2022-07-05T12:26:13;20.90;99.90
53152;DHT22;39234;53.158;6.322;2022-07-05T12:28:41;19.70;99.90
53152;DHT22;39234;53.158;6.322;2022-07-05T12:31:21;18.70;1.00
53152;DHT22;39234;53.158;6.322;2022-07-05T12:33:52;18.60;1.00
53152;DHT22;39234;53.158;6.322;2022-07-05T12:36:22;19.50;1.00
53152;DHT22;39234;53.158;6.322;2022-07-05T12:38:59;18.60;1.00
53152;DHT22;39234;53.158;6.322;2022-07-05T12:41:25;18.40;99.90
53152;DHT22;39234;53.158;6.322;2022-07-05T12:43:55;19.30;99.90
53152;DHT22;39234;53.158;6.322;2022-07-05T12:46:37;18.20;95.90
53152;DHT22;39234;53.158;6.322;2022-07-05T12:49:03;18.40;99.90
53152;DHT22;39234;53.158;6.322;2022-07-05T12:51:37;20.20;99.90
53152;DHT22;39234;53.158;6.322;2022-07-05T12:54:06;19.00;99.90
53152;DHT22;39234;53.158;6.322;2022-07-05T12:56:51;18.70;60.20
53152;DHT22;39234;53.158;6.322;2022-07-05T12:59:37;19.00;99.90
53152;DHT22;39234;53.158;6.322;2022-07-05T13:02:04;19.20;99.90
53152;DHT22;39234;53.158;6.322;2022-07-05T13:04:30;19.80;99.90
53152;DHT22;39234;53.158;6.322;2022-07-05T13:07:03;19.80;62.80
53152;DHT22;39234;53.158;6.322;2022-07-05T13:09:35;20.00;40.40
53152;DHT22;39234;53.158;6.322;2022-07-05T13:14:34;20.10;1.00
53152;DHT22;39234;53.158;6.322;2022-07-05T13:17:00;19.60;1.00
53152;DHT22;39234;53.158;6.322;2022-07-05T13:19:26;19.60;1.00
53152;DHT22;39234;53.158;6.322;2022-07-05T13:21:54;19.80;1.00
53152;DHT22;39234;53.158;6.322;2022-07-05T13:24:19;19.50;1.00
53152;DHT22;39234;53.158;6.322;2022-07-05T13:26:45;19.50;1.00
53152;DHT22;39234;53.158;6.322;2022-07-05T13:29:13;19.70;1.00
53152;DHT22;39234;53.158;6.322;2022-07-05T13:31:38;20.10;1.00
53152;DHT22;39234;53.158;6.322;2022-07-05T13:34:06;20.10;10.40
53152;DHT22;39234;53.158;6.322;2022-07-05T13:36:32;20.20;1.00
53152;DHT22;39234;53.158;6.322;2022-07-05T13:38:57;19.90;1.00
53152;DHT22;39234;53.158;6.322;2022-07-05T13:41:25;20.10;99.90
53152;DHT22;39234;53.158;6.322;2022-07-05T13:43:52;19.70;99.90
53152;DHT22;39234;53.158;6.322;2022-07-05T13:46:17;19.80;99.90
53152;DHT22;39234;53.158;6.322;2022-07-05T13:48:43;19.80;99.90
53152;DHT22;39234;53.158;6.322;2022-07-05T13:51:09;22.20;99.90
53152;DHT22;39234;53.158;6.322;2022-07-05T13:53:35;20.10;99.90
53152;DHT22;39234;53.158;6.322;2022-07-05T13:56:05;22.10;99.90
53152;DHT22;39234;53.158;6.322;2022-07-05T13:58:32;19.90;99.90
53152;DHT22;39234;53.158;6.322;2022-07-05T14:00:58;19.80;99.90
53152;DHT22;39234;53.158;6.322;2022-07-05T14:03:24;19.90;99.90
53152;DHT22;39234;53.158;6.322;2022-07-05T14:05:49;19.90;99.90
53152;DHT22;39234;53.158;6.322;2022-07-05T14:08:15;19.90;99.90
53152;DHT22;39234;53.158;6.322;2022-07-05T14:10:48;19.70;99.90
53152;DHT22;39234;53.158;6.322;2022-07-05T14:13:16;20.10;99.90
53152;DHT22;39234;53.158;6.322;2022-07-05T14:15:42;19.60;98.30
53152;DHT22;39234;53.158;6.322;2022-07-05T14:18:08;19.10;11.10
53152;DHT22;39234;53.158;6.322;2022-07-05T14:20:33;19.20;1.00
53152;DHT22;39234;53.158;6.322;2022-07-05T14:22:59;19.10;1.00
53152;DHT22;39234;53.158;6.322;2022-07-05T14:25:24;19.80;1.80
53152;DHT22;39234;53.158;6.322;2022-07-05T14:27:50;19.00;53.70
53152;DHT22;39234;53.158;6.322;2022-07-05T14:30:16;18.70;90.30
53152;DHT22;39234;53.158;6.322;2022-07-05T14:32:44;19.00;99.60
53152;DHT22;39234;53.158;6.322;2022-07-05T14:35:10;18.80;99.90
53152;DHT22;39234;53.158;6.322;2022-07-05T14:37:35;19.10;99.90
53152;DHT22;39234;53.158;6.322;2022-07-05T14:40:01;19.40;99.90
53152;DHT22;39234;53.158;6.322;2022-07-05T14:42:30;19.80;99.90
53152;DHT22;39234;53.158;6.322;2022-07-05T14:44:56;22.20;99.90
53152;DHT22;39234;53.158;6.322;2022-07-05T14:47:24;19.90;65.70
53152;DHT22;39234;53.158;6.322;2022-07-05T14:49:53;20.60;34.40
53152;DHT22;39234;53.158;6.322;2022-07-05T14:52:20;19.80;33.70
53152;DHT22;39234;53.158;6.322;2022-07-05T14:54:47;19.80;49.60
53152;DHT22;39234;53.158;6.322;2022-07-05T14:57:15;19.20;28.80
53152;DHT22;39234;53.158;6.322;2022-07-05T14:59:40;19.70;52.40
53152;DHT22;39234;53.158;6.322;2022-07-05T15:02:09;19.00;76.60
53152;DHT22;39234;53.158;6.322;2022-07-05T15:04:35;19.70;98.90
53152;DHT22;39234;53.158;6.322;2022-07-05T15:07:01;18.90;99.90
53152;DHT22;39234;53.158;6.322;2022-07-05T15:09:26;18.60;99.90
53152;DHT22;39234;53.158;6.322;2022-07-05T15:11:52;18.80;99.90
53152;DHT22;39234;53.158;6.322;2022-07-05T15:14:17;20.50;99.90
53152;DHT22;39234;53.158;6.322;2022-07-05T15:16:45;19.70;99.90
53152;DHT22;39234;53.158;6.322;2022-07-05T15:19:11;20.20;99.90
53152;DHT22;39234;53.158;6.322;2022-07-05T15:21:37;18.60;99.90
53152;DHT22;39234;53.158;6.322;2022-07-05T15:24:03;18.90;99.90
53152;DHT22;39234;53.158;6.322;2022-07-05T15:26:28;18.60;99.90
53152;DHT22;39234;53.158;6.322;2022-07-05T15:29:13;18.60;99.90
53152;DHT22;39234;53.158;6.322;2022-07-05T15:31:39;18.50;99.90
53152;DHT22;39234;53.158;6.322;2022-07-05T15:34:05;18.40;99.90
53152;DHT22;39234;53.158;6.322;2022-07-05T15:36:33;18.40;99.90
53152;DHT22;39234;53.158;6.322;2022-07-05T15:39:04;18.20;99.90
53152;DHT22;39234;53.158;6.322;2022-07-05T15:41:30;19.60;99.90
53152;DHT22;39234;53.158;6.322;2022-07-05T15:43:58;18.50;99.90
53152;DHT22;39234;53.158;6.322;2022-07-05T15:46:24;19.10;99.90
53152;DHT22;39234;53.158;6.322;2022-07-05T15:48:50;18.70;99.90
53152;DHT22;39234;53.158;6.322;2022-07-05T15:51:16;18.40;99.90
53152;DHT22;39234;53.158;6.322;2022-07-05T15:53:45;18.80;99.90
53152;DHT22;39234;53.158;6.322;2022-07-05T15:56:12;18.80;99.90
53152;DHT22;39234;53.158;6.322;2022-07-05T15:58:40;18.70;99.90
53152;DHT22;39234;53.158;6.322;2022-07-05T16:01:06;18.80;99.90
53152;DHT22;39234;53.158;6.322;2022-07-05T16:03:32;18.90;99.90
53152;DHT22;39234;53.158;6.322;2022-07-05T16:06:00;18.70;99.90
53152;DHT22;39234;53.158;6.322;2022-07-05T16:08:27;19.40;99.90